Time,TemperatureF,DewpointF,PressureIn,WindDirection,WindDirectionDegrees,WindSpeedMPH,WindSpeedGustMPH,Humidity,HourlyPrecipIn,Conditions,Clouds,dailyrainin,SoftwareType,DateUTC
2013-06-05 00:00:00,82.3,35.7,27.30,ENE,68,0.0,0.0,19,0.00,,,0.00,WUHU216HW,2013-06-05 07:00:00,
2013-06-05 00:05:00,82.3,35.7,27.30,ENE,68,0.0,0.0,19,0.00,,,0.00,WUHU216HW,2013-06-05 07:05:00,
2013-06-05 00:30:00,80.3,36.7,27.30,East,90,0.0,0.0,21,0.00,,,0.00,WUHU216HW,2013-06-05 07:30:00,
2013-06-05 00:35:00,80.1,36.5,27.30,East,90,0.0,0.0,21,0.00,,,0.00,WUHU216HW,2013-06-05 07:35:00,
2013-06-05 01:00:00,78.1,35.9,27.30,ESE,113,0.0,0.0,22,0.00,,,0.00,WUHU216HW,2013-06-05 08:00:00,
2013-06-05 01:05:00,78.1,35.9,27.30,ESE,113,0.0,0.0,22,0.00,,,0.00,WUHU216HW,2013-06-05 08:05:00,
2013-06-05 01:30:00,76.5,35.7,27.30,ENE,68,0.0,0.0,23,0.00,,,0.00,WUHU216HW,2013-06-05 08:30:00,
2013-06-05 01:35:00,76.5,35.7,27.30,ENE,68,0.4,0.4,23,0.00,,,0.00,WUHU216HW,2013-06-05 08:35:00,
2013-06-05 02:00:00,74.9,36.4,27.29,ENE,68,0.0,0.0,25,0.00,,,0.00,WUHU216HW,2013-06-05 09:00:00,
2013-06-05 02:05:00,74.9,36.4,27.29,ENE,68,0.0,0.0,25,0.00,,,0.00,WUHU216HW,2013-06-05 09:05:00,
2013-06-05 02:30:00,73.4,36.1,27.29,ENE,68,0.0,0.0,26,0.00,,,0.00,WUHU216HW,2013-06-05 09:30:00,
2013-06-05 02:35:00,73.4,36.1,27.29,ENE,68,0.0,0.0,26,0.00,,,0.00,WUHU216HW,2013-06-05 09:35:00,
2013-06-05 03:00:00,73.1,34.8,27.30,ENE,68,0.0,0.0,25,0.00,,,0.00,WUHU216HW,2013-06-05 10:00:00,
2013-06-05 03:05:00,73.1,34.8,27.30,ENE,68,0.0,0.0,25,0.00,,,0.00,WUHU216HW,2013-06-05 10:05:00,
2013-06-05 03:30:00,71.6,39.4,27.30,NE,45,0.0,0.0,31,0.00,,,0.00,WUHU216HW,2013-06-05 10:30:00,
2013-06-05 03:35:00,71.6,39.4,27.30,NE,45,0.0,0.0,31,0.00,,,0.00,WUHU216HW,2013-06-05 10:35:00,
2013-06-05 04:00:00,71.1,36.2,27.30,NE,45,0.0,0.0,28,0.00,,,0.00,WUHU216HW,2013-06-05 11:00:00,
2013-06-05 04:05:00,71.1,36.2,27.30,NE,45,0.0,0.0,28,0.00,,,0.00,WUHU216HW,2013-06-05 11:05:00,
2013-06-05 04:30:00,70.4,36.5,27.30,NE,45,0.0,0.0,29,0.00,,,0.00,WUHU216HW,2013-06-05 11:30:00,
2013-06-05 04:35:00,70.4,36.5,27.30,NE,45,0.0,0.0,29,0.00,,,0.00,WUHU216HW,2013-06-05 11:35:00,
2013-06-05 05:00:00,69.1,37.2,27.31,ENE,68,0.0,0.0,31,0.00,,,0.00,WUHU216HW,2013-06-05 12:00:00,
2013-06-05 05:05:00,69.1,37.2,27.31,ENE,68,0.0,0.0,31,0.00,,,0.00,WUHU216HW,2013-06-05 12:05:00,
2013-06-05 05:30:00,68.4,36.6,27.32,North,0,0.0,0.0,31,0.00,,,0.00,WUHU216HW,2013-06-05 12:30:00,
2013-06-05 05:35:00,68.4,36.6,27.32,North,0,0.0,0.0,31,0.00,,,0.00,WUHU216HW,2013-06-05 12:35:00,
2013-06-05 06:00:00,69.5,36.7,27.32,NNE,23,0.0,0.0,30,0.00,,,0.00,WUHU216HW,2013-06-05 13:00:00,
2013-06-05 06:05:00,69.5,36.7,27.32,NNE,23,0.0,0.0,30,0.00,,,0.00,WUHU216HW,2013-06-05 13:05:00,
2013-06-05 06:30:00,71.1,39.7,27.32,SW,225,0.7,0.7,32,0.00,,,0.00,WUHU216HW,2013-06-05 13:30:00,
2013-06-05 06:35:00,71.1,39.7,27.32,SW,225,0.7,0.7,32,0.00,,,0.00,WUHU216HW,2013-06-05 13:35:00,
2013-06-05 07:00:00,73.1,39.9,27.33,SW,225,0.0,0.0,30,0.00,,,0.00,WUHU216HW,2013-06-05 14:00:00,
2013-06-05 07:05:00,73.1,39.9,27.33,SSW,203,0.0,0.0,30,0.00,,,0.00,WUHU216HW,2013-06-05 14:05:00,
2013-06-05 07:30:00,76.0,38.3,27.34,SW,225,0.0,0.0,26,0.00,,,0.00,WUHU216HW,2013-06-05 14:30:00,
2013-06-05 07:35:00,76.0,38.3,27.34,SW,225,0.4,0.4,26,0.00,,,0.00,WUHU216HW,2013-06-05 14:35:00,
2013-06-05 08:00:00,78.7,39.4,27.34,WSW,248,0.4,0.4,25,0.00,,,0.00,WUHU216HW,2013-06-05 15:00:00,
2013-06-05 08:05:00,78.7,39.4,27.34,WSW,248,0.4,0.4,25,0.00,,,0.00,WUHU216HW,2013-06-05 15:05:00,
2013-06-05 08:30:00,82.3,37.3,27.35,WSW,248,0.4,0.4,20,0.00,,,0.00,WUHU216HW,2013-06-05 15:30:00,
2013-06-05 08:35:00,82.4,38.5,27.35,WSW,248,0.4,0.4,21,0.00,,,0.00,WUHU216HW,2013-06-05 15:35:00,
2013-06-05 09:00:00,84.6,35.7,27.34,SW,225,0.0,0.0,18,0.00,,,0.00,WUHU216HW,2013-06-05 16:00:00,
2013-06-05 09:05:00,84.6,35.7,27.34,SW,225,0.0,0.0,18,0.00,,,0.00,WUHU216HW,2013-06-05 16:05:00,
2013-06-05 09:30:00,86.8,34.1,27.34,SE,135,1.3,1.3,16,0.00,,,0.00,WUHU216HW,2013-06-05 16:30:00,
2013-06-05 09:35:00,86.8,34.1,27.34,SE,135,1.3,1.3,16,0.00,,,0.00,WUHU216HW,2013-06-05 16:35:00,
2013-06-05 10:00:00,88.7,34.0,27.34,WSW,248,1.1,1.1,15,0.00,,,0.00,WUHU216HW,2013-06-05 17:00:00,
2013-06-05 10:05:00,88.7,32.2,27.34,South,180,0.7,1.1,14,0.00,,,0.00,WUHU216HW,2013-06-05 17:05:00,
2013-06-05 10:30:00,90.9,35.6,27.34,NNW,338,0.7,0.7,15,0.00,,,0.00,WUHU216HW,2013-06-05 17:30:00,
2013-06-05 10:35:00,90.9,35.6,27.34,NNW,338,0.7,0.7,15,0.00,,,0.00,WUHU216HW,2013-06-05 17:35:00,
2013-06-05 11:00:00,91.6,31.0,27.33,North,0,0.7,0.7,12,0.00,,,0.00,WUHU216HW,2013-06-05 18:00:00,
2013-06-05 11:05:00,91.8,31.2,27.33,NNW,338,0.9,0.9,12,0.00,,,0.00,WUHU216HW,2013-06-05 18:05:00,
2013-06-05 11:30:00,92.9,28.4,27.32,SW,225,1.1,1.8,10,0.00,,,0.00,WUHU216HW,2013-06-05 18:30:00,
2013-06-05 11:31:00,92.9,28.4,27.32,West,270,1.8,1.8,10,0.00,,,0.00,WUHU216HW,2013-06-05 18:31:00,
2013-06-05 11:36:00,92.9,28.4,27.32,SW,225,1.1,1.8,10,0.00,,,0.00,WUHU216HW,2013-06-05 18:36:00,
2013-06-05 12:00:00,95.0,30.1,27.31,ESE,113,1.3,1.3,9,0.00,,,0.00,WUHU216HW,2013-06-05 19:00:00,
2013-06-05 12:05:00,95.2,30.2,27.31,ESE,113,1.8,1.8,9,0.00,,,0.00,WUHU216HW,2013-06-05 19:05:00,
2013-06-05 12:30:00,96.7,31.2,27.31,SSW,203,1.6,1.6,8,0.00,,,0.00,WUHU216HW,2013-06-05 19:30:00,
2013-06-05 12:31:00,96.7,31.2,27.31,SSW,203,1.6,1.6,8,0.00,,,0.00,WUHU216HW,2013-06-05 19:31:00,
2013-06-05 12:36:00,96.7,31.2,27.31,SSW,203,1.6,1.6,8,0.00,,,0.00,WUHU216HW,2013-06-05 19:36:00,
2013-06-05 13:00:00,97.6,31.9,27.30,NW,315,2.5,2.5,6,0.00,,,0.00,WUHU216HW,2013-06-05 20:00:00,
2013-06-05 13:05:00,97.6,31.9,27.30,South,180,3.1,3.1,6,0.00,,,0.00,WUHU216HW,2013-06-05 20:05:00,
2013-06-05 13:30:00,98.5,32.6,27.29,ESE,113,2.2,2.2,6,0.00,,,0.00,WUHU216HW,2013-06-05 20:30:00,
2013-06-05 13:36:00,98.5,32.6,27.29,WSW,248,2.2,2.9,6,0.00,,,0.00,WUHU216HW,2013-06-05 20:36:00,
2013-06-05 14:00:00,97.9,32.2,27.27,WSW,248,3.1,3.1,7,0.00,,,0.00,WUHU216HW,2013-06-05 21:00:00,
2013-06-05 14:05:00,97.9,32.2,27.27,SW,225,4.7,4.7,7,0.00,,,0.00,WUHU216HW,2013-06-05 21:05:00,
2013-06-05 14:30:00,99.0,33.0,27.27,WSW,248,1.1,2.2,6,0.00,,,0.00,WUHU216HW,2013-06-05 21:30:00,
2013-06-05 14:31:00,98.8,33.0,27.27,West,270,2.2,2.2,6,0.00,,,0.00,WUHU216HW,2013-06-05 21:31:00,
2013-06-05 14:36:00,99.0,33.0,27.27,WSW,248,1.1,2.2,6,0.00,,,0.00,WUHU216HW,2013-06-05 21:36:00,
2013-06-05 15:00:00,98.8,33.0,27.26,West,270,1.1,1.1,5,0.00,,,0.00,WUHU216HW,2013-06-05 22:00:00,
2013-06-05 15:05:00,99.0,33.0,27.26,WSW,248,1.1,1.1,6,0.00,,,0.00,WUHU216HW,2013-06-05 22:05:00,
2013-06-05 15:30:00,99.5,33.5,27.25,WNW,293,2.9,2.9,6,0.00,,,0.00,WUHU216HW,2013-06-05 22:30:00,
2013-06-05 15:31:00,99.5,33.5,27.25,WNW,293,2.9,2.9,6,0.00,,,0.00,WUHU216HW,2013-06-05 22:31:00,
2013-06-05 15:36:00,99.5,33.5,27.25,WNW,293,2.9,2.9,6,0.00,,,0.00,WUHU216HW,2013-06-05 22:36:00,
2013-06-05 16:00:00,99.2,33.2,27.24,SW,225,3.4,3.4,6,0.00,,,0.00,WUHU216HW,2013-06-05 23:00:00,
2013-06-05 16:05:00,99.2,33.2,27.24,SSW,203,3.8,3.8,6,0.00,,,0.00,WUHU216HW,2013-06-05 23:05:00,
2013-06-05 16:30:00,99.7,33.7,27.23,NW,315,2.5,3.6,6,0.00,,,0.00,WUHU216HW,2013-06-05 23:30:00,
2013-06-05 16:31:00,99.7,33.7,27.23,West,270,3.6,3.6,6,0.00,,,0.00,WUHU216HW,2013-06-05 23:31:00,
2013-06-05 16:36:00,99.7,33.7,27.23,NW,315,2.5,3.6,6,0.00,,,0.00,WUHU216HW,2013-06-05 23:36:00,
2013-06-05 17:00:00,99.0,33.0,27.22,NW,315,2.9,2.9,5,0.00,,,0.00,WUHU216HW,2013-06-06 00:00:00,
2013-06-05 17:05:00,99.0,33.0,27.22,West,270,2.7,4.0,5,0.00,,,0.00,WUHU216HW,2013-06-06 00:05:00,
2013-06-05 17:30:00,99.0,33.0,27.22,WNW,293,2.2,3.6,6,0.00,,,0.00,WUHU216HW,2013-06-06 00:30:00,
2013-06-05 17:31:00,99.0,33.0,27.22,West,270,3.6,3.6,5,0.00,,,0.00,WUHU216HW,2013-06-06 00:31:00,
2013-06-05 17:36:00,99.0,33.0,27.22,WNW,293,2.2,3.6,6,0.00,,,0.00,WUHU216HW,2013-06-06 00:36:00,
2013-06-05 18:00:00,98.3,32.5,27.22,WNW,293,2.5,2.5,6,0.00,,,0.00,WUHU216HW,2013-06-06 01:00:00,
2013-06-05 18:05:00,98.3,32.5,27.22,WNW,293,2.0,2.5,6,0.00,,,0.00,WUHU216HW,2013-06-06 01:05:00,
2013-06-05 18:30:00,98.3,32.5,27.22,West,270,2.5,2.5,6,0.00,,,0.00,WUHU216HW,2013-06-06 01:30:00,
2013-06-05 18:31:00,98.3,32.5,27.22,West,270,2.5,2.5,6,0.00,,,0.00,WUHU216HW,2013-06-06 01:31:00,
2013-06-05 18:36:00,98.3,32.5,27.22,West,270,2.5,2.5,6,0.00,,,0.00,WUHU216HW,2013-06-06 01:36:00,
2013-06-05 19:00:00,96.5,31.1,27.22,West,270,1.1,1.1,6,0.00,,,0.00,WUHU216HW,2013-06-06 02:00:00,
2013-06-05 19:05:00,96.5,31.1,27.22,WNW,293,1.1,1.1,6,0.00,,,0.00,WUHU216HW,2013-06-06 02:05:00,
2013-06-05 19:30:00,94.3,29.5,27.22,NNW,338,0.0,0.0,7,0.00,,,0.00,WUHU216HW,2013-06-06 02:30:00,
2013-06-05 19:35:00,94.3,29.5,27.22,NNW,338,0.0,0.0,7,0.00,,,0.00,WUHU216HW,2013-06-06 02:35:00,
2013-06-05 20:00:00,92.5,28.1,27.23,NNW,338,1.6,1.6,8,0.00,,,0.00,WUHU216HW,2013-06-06 03:00:00,
2013-06-05 20:05:00,92.3,28.0,27.23,NW,315,1.1,1.6,8,0.00,,,0.00,WUHU216HW,2013-06-06 03:05:00,
2013-06-05 20:30:00,90.4,26.5,27.24,NW,315,0.0,0.0,8,0.00,,,0.00,WUHU216HW,2013-06-06 03:30:00,
2013-06-05 20:31:00,90.4,26.5,27.24,NW,315,0.0,0.0,8,0.00,,,0.00,WUHU216HW,2013-06-06 03:31:00,
2013-06-05 20:36:00,90.4,26.5,27.24,NW,315,0.0,0.0,8,0.00,,,0.00,WUHU216HW,2013-06-06 03:36:00,
2013-06-05 21:00:00,89.5,25.8,27.25,NW,315,1.1,1.1,10,0.00,,,0.00,WUHU216HW,2013-06-06 04:00:00,
2013-06-05 21:01:00,89.5,25.8,27.25,West,270,0.7,1.1,10,0.00,,,0.00,WUHU216HW,2013-06-06 04:01:00,
2013-06-05 21:06:00,89.5,25.8,27.25,West,270,0.7,1.1,10,0.00,,,0.00,WUHU216HW,2013-06-06 04:06:00,
2013-06-05 21:30:00,87.1,25.8,27.26,SSW,203,0.4,0.4,11,0.00,,,0.00,WUHU216HW,2013-06-06 04:30:00,
2013-06-05 21:35:00,87.1,25.8,27.26,SSW,203,0.4,0.4,11,0.00,,,0.00,WUHU216HW,2013-06-06 04:35:00,
2013-06-05 22:00:00,84.6,23.8,27.26,NNE,23,0.0,0.0,11,0.00,,,0.00,WUHU216HW,2013-06-06 05:00:00,
2013-06-05 22:05:00,84.6,23.8,27.26,NNE,23,0.2,0.4,11,0.00,,,0.00,WUHU216HW,2013-06-06 05:05:00,
2013-06-05 22:10:00,84.6,23.8,27.26,NNE,23,0.2,0.2,11,0.00,,,0.00,WUHU216HW,2013-06-06 05:10:00,
2013-06-05 22:30:00,82.4,24.0,27.27,SE,135,0.0,0.0,12,0.00,,,0.00,WUHU216HW,2013-06-06 05:30:00,
2013-06-05 22:35:00,82.4,24.0,27.27,SE,135,0.2,0.2,12,0.00,,,0.00,WUHU216HW,2013-06-06 05:35:00,
2013-06-05 23:00:00,81.0,24.5,27.27,East,90,0.0,0.0,13,0.00,,,0.00,WUHU216HW,2013-06-06 06:00:00,
2013-06-05 23:05:00,81.0,24.5,27.27,East,90,0.0,0.0,13,0.00,,,0.00,WUHU216HW,2013-06-06 06:05:00,
2013-06-05 23:30:00,78.8,26.0,27.27,NE,45,0.2,0.2,15,0.00,,,0.00,WUHU216HW,2013-06-06 06:30:00,
2013-06-05 23:35:00,78.8,26.0,27.27,NE,45,0.2,0.2,15,0.00,,,0.00,WUHU216HW,2013-06-06 06:35:00,